createdAt,value
2022-11-07T00:02:51.206Z,20.13
2022-11-07T00:07:53.055Z,23.23
2022-11-07T00:12:54.892Z,17.02
2022-11-07T00:17:58.535Z,16.42
2022-11-07T00:23:00.292Z,17.85
2022-11-07T00:28:02.183Z,15.25
2022-11-07T00:33:04.277Z,17.48
2022-11-07T00:38:06.070Z,16.15
2022-11-07T00:43:07.860Z,19.38
2022-11-07T00:48:09.684Z,18.15
2022-11-07T00:53:11.756Z,20.80
2022-11-07T00:58:14.629Z,22.40
2022-11-07T01:03:35.042Z,14.88
2022-11-07T01:08:37.292Z,17.20
2022-11-07T01:13:39.394Z,19.70
2022-11-07T01:18:41.279Z,19.73
2022-11-07T01:23:43.093Z,19.40
2022-11-07T01:28:45.077Z,17.55
2022-11-07T01:33:47.315Z,23.77
2022-11-07T01:38:49.651Z,19.30
2022-11-07T01:43:51.592Z,19.15
2022-11-07T01:48:58.240Z,17.40
2022-11-07T01:54:01.429Z,14.52
2022-11-07T01:59:04.144Z,17.70
2022-11-07T02:04:06.505Z,18.15
2022-11-07T02:09:08.315Z,20.05
2022-11-07T02:14:16.353Z,15.57
2022-11-07T02:19:43.332Z,24.98
2022-11-07T02:24:47.613Z,21.60
2022-11-07T02:29:55.387Z,19.45
2022-11-07T02:34:59.097Z,20.47
2022-11-07T02:40:03.364Z,21.38
2022-11-07T02:45:05.841Z,21.35
2022-11-07T02:50:09.661Z,18.17
2022-11-07T02:55:13.041Z,20.95
2022-11-07T03:00:16.026Z,23.23
2022-11-07T03:05:19.893Z,20.13
2022-11-07T03:10:21.655Z,21.35
2022-11-07T03:15:23.602Z,23.92
2022-11-07T03:20:25.392Z,23.83
2022-11-07T03:25:27.190Z,21.98
2022-11-07T03:30:29.005Z,24.45
2022-11-07T03:35:30.845Z,33.85
2022-11-07T03:40:32.614Z,29.23
2022-11-07T03:45:34.401Z,26.98
2022-11-07T03:50:36.190Z,29.08
2022-11-07T03:55:37.949Z,32.70
2022-11-07T04:00:39.726Z,32.50
2022-11-07T04:05:41.561Z,34.83
2022-11-07T04:10:43.334Z,41.58
2022-11-07T04:16:05.001Z,37.65
2022-11-07T04:21:06.710Z,35.33
2022-11-07T04:26:27.117Z,41.03
2022-11-07T04:31:28.925Z,40.78
2022-11-07T04:36:30.654Z,36.70
2022-11-07T04:41:32.525Z,30.05
2022-11-07T04:46:34.307Z,42.65
2022-11-07T04:51:43.031Z,38.15
2022-11-07T05:01:46.515Z,40.35
2022-11-07T05:06:48.325Z,37.28
2022-11-07T05:11:50.164Z,36.72
2022-11-07T05:16:54.146Z,38.72
2022-11-07T05:22:14.323Z,47.88
2022-11-07T05:27:20.138Z,39.15
2022-11-07T05:32:21.970Z,39.67
2022-11-07T05:37:23.737Z,37.25
2022-11-07T05:42:25.743Z,41.03
2022-11-07T05:47:27.477Z,36.60
2022-11-07T05:52:29.227Z,33.70
2022-11-07T05:57:31.307Z,29.13
2022-11-07T06:02:33.241Z,37.22
2022-11-07T06:07:36.658Z,33.97
2022-11-07T06:12:38.494Z,35.13
2022-11-07T06:17:40.360Z,35.83
2022-11-07T06:22:42.151Z,31.88
2022-11-07T06:27:43.899Z,28.52
2022-11-07T06:32:46.096Z,34.33
2022-11-07T06:37:47.864Z,39.08
2022-11-07T06:42:49.645Z,29.90
2022-11-07T06:47:54.915Z,29.88
2022-11-07T06:53:00.668Z,29.40
2022-11-07T06:58:03.242Z,34.22
2022-11-07T07:03:05.992Z,38.70
2022-11-07T07:08:10.351Z,33.75
2022-11-07T07:13:13.906Z,30.02
2022-11-07T07:18:15.975Z,30.77
2022-11-07T07:23:20.243Z,27.98
2022-11-07T07:28:22.172Z,30.77
2022-11-07T07:33:23.913Z,31.15
2022-11-07T07:38:25.665Z,27.02
2022-11-07T07:43:28.371Z,24.83
2022-11-07T07:48:31.360Z,29.85
2022-11-07T07:53:33.151Z,33.10
2022-11-07T07:58:35.125Z,28.98
2022-11-07T08:03:59.596Z,30.15
2022-11-07T08:08:59.583Z,31.10
2022-11-07T08:14:01.942Z,37.67
2022-11-07T08:19:03.726Z,36.58
2022-11-07T08:24:05.910Z,31.67
2022-11-07T08:29:07.838Z,33.83
2022-11-07T08:34:09.614Z,27.80
2022-11-07T08:39:11.610Z,26.30
2022-11-07T08:44:13.440Z,27.52
2022-11-07T08:49:15.408Z,26.60
2022-11-07T08:54:17.167Z,26.17
2022-11-07T08:59:19.116Z,28.77
2022-11-07T09:04:20.927Z,28.58
2022-11-07T09:09:22.955Z,28.83
2022-11-07T09:14:24.704Z,25.30
2022-11-07T09:19:27.951Z,20.85
2022-11-07T09:24:29.767Z,25.25
2022-11-07T09:29:31.499Z,21.02
2022-11-07T09:34:33.347Z,14.73
2022-11-07T09:39:35.115Z,20.52
2022-11-07T09:44:51.856Z,18.75
2022-11-07T09:49:58.603Z,20.80
2022-11-07T09:55:34.171Z,13.98
2022-11-07T10:00:35.948Z,16.85
2022-11-07T10:05:53.647Z,18.27
2022-11-07T10:11:12.024Z,17.65
2022-11-07T10:16:43.377Z,16.33
2022-11-07T10:22:16.370Z,15.70
2022-11-07T10:27:20.583Z,14.48
2022-11-07T10:32:36.166Z,29.10
2022-11-07T10:37:38.002Z,21.65
2022-11-07T10:42:39.770Z,24.33
2022-11-07T10:47:42.148Z,17.38
2022-11-07T10:53:14.803Z,18.20
2022-11-07T10:58:29.943Z,17.08
2022-11-07T11:03:44.380Z,18.33
2022-11-07T11:08:49.549Z,19.52
2022-11-07T11:14:11.546Z,16.10
2022-11-07T11:19:27.411Z,18.27
2022-11-07T11:24:37.465Z,15.90
2022-11-07T11:30:02.159Z,23.10
2022-11-07T11:35:25.754Z,17.98
2022-11-07T11:40:32.628Z,18.10
2022-11-07T11:45:56.895Z,25.30
2022-11-07T11:51:06.476Z,19.33
2022-11-07T11:56:08.175Z,25.95
2022-11-07T12:01:37.659Z,20.00
2022-11-07T12:06:43.530Z,19.70
2022-11-07T12:12:08.326Z,18.83
2022-11-07T12:17:28.572Z,18.35
2022-11-07T12:23:00.726Z,18.33
2022-11-07T12:28:17.741Z,21.70
2022-11-07T12:33:22.491Z,17.38
2022-11-07T12:38:33.090Z,13.82
2022-11-07T12:43:59.168Z,12.95
2022-11-07T12:49:37.975Z,12.85
2022-11-07T12:54:48.781Z,16.42
2022-11-07T13:00:07.283Z,13.38
2022-11-07T13:05:35.305Z,14.38
2022-11-07T13:11:09.601Z,20.20
2022-11-07T13:16:28.473Z,11.77
2022-11-07T13:21:40.498Z,11.68
2022-11-07T13:26:47.413Z,14.55
2022-11-07T13:32:05.043Z,15.38
2022-11-07T13:37:11.784Z,11.98
2022-11-07T13:42:17.382Z,11.82
2022-11-07T13:47:26.309Z,11.55
2022-11-07T13:52:48.520Z,18.88
2022-11-07T13:57:57.775Z,8.98
2022-11-07T14:03:00.589Z,11.63
2022-11-07T14:08:14.726Z,9.38
2022-11-07T14:13:39.776Z,11.77
2022-11-07T14:19:04.410Z,18.38
2022-11-07T14:24:23.106Z,12.45
2022-11-07T14:34:26.656Z,20.35
2022-11-07T14:39:31.247Z,11.75
2022-11-07T14:44:55.826Z,10.77
2022-11-07T14:49:59.544Z,11.38
2022-11-07T14:55:13.495Z,9.32
2022-11-07T15:00:18.285Z,11.02
2022-11-07T15:05:42.777Z,13.30
2022-11-07T15:10:45.007Z,8.98
2022-11-07T15:15:47.539Z,16.08
2022-11-07T15:21:01.361Z,11.30
2022-11-07T15:26:12.949Z,11.45
2022-11-07T15:31:39.452Z,13.52
2022-11-07T15:36:41.414Z,17.10
2022-11-07T15:41:43.262Z,11.48
2022-11-07T15:46:46.489Z,10.93
2022-11-07T15:51:48.196Z,14.85
2022-11-07T15:56:54.440Z,15.88
2022-11-07T16:01:59.396Z,13.07
2022-11-07T16:07:01.354Z,13.00
2022-11-07T16:12:03.127Z,22.10
2022-11-07T16:17:04.930Z,21.73
2022-11-07T16:22:06.856Z,20.88
2022-11-07T16:27:14.326Z,19.00
2022-11-07T16:32:18.318Z,24.25
2022-11-07T16:37:20.491Z,20.95
2022-11-07T16:42:22.356Z,22.63
2022-11-07T16:47:24.087Z,22.88
2022-11-07T16:52:28.147Z,32.70
2022-11-07T16:57:34.472Z,25.98
2022-11-07T17:02:36.284Z,26.50
2022-11-07T17:07:38.554Z,24.48
2022-11-07T17:12:40.440Z,28.48
2022-11-07T17:17:42.258Z,28.05
2022-11-07T17:22:44.122Z,25.25
2022-11-07T17:27:46.180Z,28.85
2022-11-07T17:32:47.953Z,29.92
2022-11-07T17:37:49.777Z,30.33
2022-11-07T17:42:51.630Z,32.95
2022-11-07T17:47:53.430Z,26.65
2022-11-07T17:52:55.367Z,31.35
2022-11-07T17:57:57.142Z,30.67
2022-11-07T18:02:59.006Z,32.17
2022-11-07T18:08:01.429Z,35.13
2022-11-07T18:13:03.187Z,35.40
2022-11-07T18:18:10.614Z,34.88
2022-11-07T18:23:12.747Z,36.63
2022-11-07T18:28:14.810Z,31.27
2022-11-07T18:33:16.822Z,32.13
2022-11-07T18:38:18.845Z,34.13
2022-11-07T18:43:20.904Z,37.15
2022-11-07T18:48:24.214Z,33.78
2022-11-07T18:53:27.791Z,37.90
2022-11-07T18:58:31.115Z,38.63
2022-11-07T19:03:34.259Z,35.13
2022-11-07T19:08:38.270Z,37.38
2022-11-07T19:13:42.237Z,34.45
2022-11-07T19:18:49.420Z,34.17
2022-11-07T19:23:51.690Z,31.05
2022-11-07T19:28:57.416Z,34.78
2022-11-07T19:33:59.305Z,33.67
2022-11-07T19:39:03.033Z,41.70
2022-11-07T19:44:05.071Z,36.15
2022-11-07T19:49:06.850Z,40.63
2022-11-07T19:54:09.992Z,36.75
2022-11-07T19:59:12.025Z,37.35
2022-11-07T20:04:13.734Z,33.72
2022-11-07T20:09:15.750Z,33.80
2022-11-07T20:14:17.607Z,42.50
2022-11-07T20:19:19.360Z,50.05
2022-11-07T20:24:21.179Z,46.78
2022-11-07T20:29:23.050Z,42.50
2022-11-07T20:34:24.816Z,48.78
2022-11-07T20:39:27.790Z,41.28
2022-11-07T20:44:29.489Z,41.28
2022-11-07T20:49:31.278Z,40.90
2022-11-07T20:54:34.282Z,46.05
2022-11-07T20:59:36.075Z,43.50
2022-11-07T21:05:02.794Z,48.97
2022-11-07T21:09:59.749Z,53.15
2022-11-07T21:15:01.634Z,52.50
2022-11-07T21:20:04.254Z,49.95
2022-11-07T21:25:06.919Z,51.05
2022-11-07T21:30:09.329Z,54.78
2022-11-07T21:35:13.353Z,55.95
2022-11-07T21:40:15.094Z,55.28
2022-11-07T21:45:16.833Z,55.10
2022-11-07T21:50:42.781Z,50.03
2022-11-07T21:55:40.322Z,56.15
2022-11-07T22:00:42.122Z,55.33
2022-11-07T22:05:44.132Z,55.15
2022-11-07T22:10:45.850Z,55.08
2022-11-07T22:15:47.751Z,54.03
2022-11-07T22:20:49.594Z,62.97
2022-11-07T22:25:51.522Z,56.10
2022-11-07T22:30:53.278Z,56.13
2022-11-07T22:35:57.157Z,62.58
2022-11-07T22:40:59.553Z,56.95
2022-11-07T22:46:06.904Z,57.92
2022-11-07T22:51:13.851Z,61.00
2022-11-07T22:56:18.111Z,67.50
2022-11-07T23:01:24.640Z,74.15
2022-11-07T23:06:27.909Z,68.22
2022-11-07T23:11:50.797Z,72.50
2022-11-07T23:16:55.365Z,68.70
2022-11-07T23:21:57.287Z,77.45
2022-11-07T23:26:59.210Z,68.22
2022-11-07T23:32:00.955Z,70.38
2022-11-07T23:37:03.230Z,74.22
2022-11-07T23:42:05.001Z,69.68
2022-11-07T23:47:26.775Z,61.67
2022-11-07T23:52:28.874Z,62.63
2022-11-07T23:57:33.761Z,59.10
